sensor_id;sensor_type;location;lat;lon;timestamp;pressure;altitude;pressure_sealevel;temperature;humidity
24666;BME280;29726;53.532;-1.478;2023-05-02T00:01:09;101423.91;;;18.71;92.74
24666;BME280;29726;53.532;-1.478;2023-05-02T00:03:53;101423.84;;;18.66;92.89
24666;BME280;29726;53.532;-1.478;2023-05-02T00:06:37;101435.22;;;18.71;92.55
24666;BME280;29726;53.532;-1.478;2023-05-02T00:09:21;101434.91;;;18.64;92.93
24666;BME280;29726;53.532;-1.478;2023-05-02T00:12:05;101440.28;;;18.62;92.95
24666;BME280;29726;53.532;-1.478;2023-05-02T00:14:48;101434.34;;;18.60;92.53
24666;BME280;29726;53.532;-1.478;2023-05-02T00:17:33;101398.59;;;18.32;92.82
24666;BME280;29726;53.532;-1.478;2023-05-02T00:20:17;101440.75;;;18.55;92.43
24666;BME280;29726;53.532;-1.478;2023-05-02T00:23:01;101443.31;;;18.53;92.71
24666;BME280;29726;53.532;-1.478;2023-05-02T00:25:45;101416.63;;;18.34;92.27
24666;BME280;29726;53.532;-1.478;2023-05-02T00:28:29;101433.09;;;18.36;92.57
24666;BME280;29726;53.532;-1.478;2023-05-02T00:31:13;101443.41;;;18.39;92.38
24666;BME280;29726;53.532;-1.478;2023-05-02T00:33:57;101452.16;;;18.41;92.41
24666;BME280;29726;53.532;-1.478;2023-05-02T00:36:41;101461.16;;;18.39;92.27
24666;BME280;29726;53.532;-1.478;2023-05-02T00:39:25;101462.66;;;18.35;92.46
24666;BME280;29726;53.532;-1.478;2023-05-02T00:42:09;101459.53;;;18.33;92.32
24666;BME280;29726;53.532;-1.478;2023-05-02T00:44:53;101457.41;;;18.28;92.58
24666;BME280;29726;53.532;-1.478;2023-05-02T00:47:37;101445.72;;;18.20;92.56
24666;BME280;29726;53.532;-1.478;2023-05-02T00:50:25;101454.28;;;18.26;92.39
24666;BME280;29726;53.532;-1.478;2023-05-02T00:53:10;101455.78;;;18.21;92.33
24666;BME280;29726;53.532;-1.478;2023-05-02T00:55:54;101445.69;;;18.15;92.31
24666;BME280;29726;53.532;-1.478;2023-05-02T00:58:39;101462.66;;;18.15;92.44
24666;BME280;29726;53.532;-1.478;2023-05-02T01:08:24;101461.31;;;18.10;92.36
24666;BME280;29726;53.532;-1.478;2023-05-02T01:11:04;101463.84;;;18.08;92.48
24666;BME280;29726;53.532;-1.478;2023-05-02T01:13:56;101450.09;;;17.96;92.25
24666;BME280;29726;53.532;-1.478;2023-05-02T01:16:44;101459.59;;;17.98;92.20
24666;BME280;29726;53.532;-1.478;2023-05-02T01:19:38;101461.19;;;17.99;92.39
24666;BME280;29726;53.532;-1.478;2023-05-02T01:22:25;101450.81;;;17.91;92.22
24666;BME280;29726;53.532;-1.478;2023-05-02T01:25:25;101454.63;;;17.88;92.32
24666;BME280;29726;53.532;-1.478;2023-05-02T01:28:23;101442.97;;;17.80;92.46
24666;BME280;29726;53.532;-1.478;2023-05-02T01:31:12;101450.44;;;17.83;92.31
24666;BME280;29726;53.532;-1.478;2023-05-02T01:33:59;101455.09;;;17.86;92.63
24666;BME280;29726;53.532;-1.478;2023-05-02T01:36:46;101445.91;;;17.71;92.31
24666;BME280;29726;53.532;-1.478;2023-05-02T01:39:32;101462.47;;;17.78;92.22
24666;BME280;29726;53.532;-1.478;2023-05-02T01:42:19;101455.75;;;17.76;92.21
24666;BME280;29726;53.532;-1.478;2023-05-02T01:45:04;101463.16;;;17.73;92.32
24666;BME280;29726;53.532;-1.478;2023-05-02T01:47:51;101448.19;;;17.67;92.17
24666;BME280;29726;53.532;-1.478;2023-05-02T01:50:36;101465.22;;;17.73;92.02
24666;BME280;29726;53.532;-1.478;2023-05-02T01:53:24;101460.28;;;17.68;91.97
24666;BME280;29726;53.532;-1.478;2023-05-02T01:56:09;101465.63;;;17.66;91.95
24666;BME280;29726;53.532;-1.478;2023-05-02T01:58:54;101462.94;;;17.57;91.96
24666;BME280;29726;53.532;-1.478;2023-05-02T02:01:41;101449.22;;;17.50;92.09
24666;BME280;29726;53.532;-1.478;2023-05-02T02:04:27;101458.47;;;17.50;92.06
24666;BME280;29726;53.532;-1.478;2023-05-02T02:07:13;101463.53;;;17.46;92.10
24666;BME280;29726;53.532;-1.478;2023-05-02T02:09:57;101468.19;;;17.49;91.92
24666;BME280;29726;53.532;-1.478;2023-05-02T02:12:46;101475.91;;;17.49;91.91
24666;BME280;29726;53.532;-1.478;2023-05-02T02:15:33;101471.81;;;17.50;92.17
24666;BME280;29726;53.532;-1.478;2023-05-02T02:18:20;101478.75;;;17.49;92.15
24666;BME280;29726;53.532;-1.478;2023-05-02T02:21:08;101458.72;;;17.32;92.07
24666;BME280;29726;53.532;-1.478;2023-05-02T02:23:56;101474.69;;;17.35;91.82
24666;BME280;29726;53.532;-1.478;2023-05-02T02:26:44;101492.19;;;17.39;91.77
24666;BME280;29726;53.532;-1.478;2023-05-02T02:29:29;101481.47;;;17.29;92.13
24666;BME280;29726;53.532;-1.478;2023-05-02T02:32:13;101485.97;;;17.35;92.11
24666;BME280;29726;53.532;-1.478;2023-05-02T02:34:58;101493.34;;;17.33;91.92
24666;BME280;29726;53.532;-1.478;2023-05-02T02:37:47;101501.06;;;17.32;91.89
24666;BME280;29726;53.532;-1.478;2023-05-02T02:40:48;101483.06;;;17.15;92.01
24666;BME280;29726;53.532;-1.478;2023-05-02T02:43:46;101498.31;;;17.23;91.97
24666;BME280;29726;53.532;-1.478;2023-05-02T02:47:05;101509.91;;;17.25;92.11
24666;BME280;29726;53.532;-1.478;2023-05-02T02:53:16;101499.81;;;17.19;91.95
24666;BME280;29726;53.532;-1.478;2023-05-02T02:56:05;101492.22;;;17.10;92.07
24666;BME280;29726;53.532;-1.478;2023-05-02T02:59:04;101496.88;;;17.13;92.21
24666;BME280;29726;53.532;-1.478;2023-05-02T03:01:58;101492.88;;;17.05;91.88
24666;BME280;29726;53.532;-1.478;2023-05-02T03:04:46;101490.00;;;17.00;91.97
24666;BME280;29726;53.532;-1.478;2023-05-02T03:07:32;101506.06;;;17.08;91.82
24666;BME280;29726;53.532;-1.478;2023-05-02T03:10:17;101505.94;;;17.03;92.00
24666;BME280;29726;53.532;-1.478;2023-05-02T03:13:01;101508.59;;;17.06;91.76
24666;BME280;29726;53.532;-1.478;2023-05-02T03:18:35;101512.75;;;16.96;91.73
24666;BME280;29726;53.532;-1.478;2023-05-02T03:21:19;101506.81;;;16.94;91.73
24666;BME280;29726;53.532;-1.478;2023-05-02T03:24:03;101524.34;;;16.98;91.70
24666;BME280;29726;53.532;-1.478;2023-05-02T03:26:47;101516.38;;;16.97;91.85
24666;BME280;29726;53.532;-1.478;2023-05-02T03:29:31;101504.97;;;16.91;91.70
24666;BME280;29726;53.532;-1.478;2023-05-02T03:32:15;101459.56;;;16.61;91.80
24666;BME280;29726;53.532;-1.478;2023-05-02T03:34:59;101508.78;;;16.88;91.87
24666;BME280;29726;53.532;-1.478;2023-05-02T03:37:44;101498.66;;;16.82;91.82
24666;BME280;29726;53.532;-1.478;2023-05-02T03:40:28;101502.94;;;16.77;91.75
24666;BME280;29726;53.532;-1.478;2023-05-02T03:43:12;101510.63;;;16.77;91.79
24666;BME280;29726;53.532;-1.478;2023-05-02T03:45:56;101516.84;;;16.81;91.77
24666;BME280;29726;53.532;-1.478;2023-05-02T03:48:40;101516.75;;;16.75;91.73
24666;BME280;29726;53.532;-1.478;2023-05-02T03:51:24;101518.28;;;16.76;91.73
24666;BME280;29726;53.532;-1.478;2023-05-02T03:54:09;101513.03;;;16.70;91.63
24666;BME280;29726;53.532;-1.478;2023-05-02T03:56:53;101529.78;;;16.73;91.81
24666;BME280;29726;53.532;-1.478;2023-05-02T03:59:37;101536.28;;;16.65;91.67
24666;BME280;29726;53.532;-1.478;2023-05-02T04:02:24;101524.72;;;16.63;91.52
24666;BME280;29726;53.532;-1.478;2023-05-02T04:05:08;101537.34;;;16.67;91.69
24666;BME280;29726;53.532;-1.478;2023-05-02T04:07:51;101532.69;;;16.64;91.67
24666;BME280;29726;53.532;-1.478;2023-05-02T04:10:35;101550.38;;;16.65;91.68
24666;BME280;29726;53.532;-1.478;2023-05-02T04:13:19;101543.66;;;16.62;91.49
24666;BME280;29726;53.532;-1.478;2023-05-02T04:16:03;101546.97;;;16.61;91.54
24666;BME280;29726;53.532;-1.478;2023-05-02T04:18:48;101541.03;;;16.59;91.52
24666;BME280;29726;53.532;-1.478;2023-05-02T04:21:35;101541.22;;;16.55;92.02
24666;BME280;29726;53.532;-1.478;2023-05-02T04:24:20;101541.69;;;16.54;91.47
24666;BME280;29726;53.532;-1.478;2023-05-02T04:27:03;101558.16;;;16.55;91.58
24666;BME280;29726;53.532;-1.478;2023-05-02T04:29:48;101551.72;;;16.55;91.75
24666;BME280;29726;53.532;-1.478;2023-05-02T04:32:33;101543.94;;;16.50;91.73
24666;BME280;29726;53.532;-1.478;2023-05-02T04:35:17;101519.31;;;16.36;91.55
24666;BME280;29726;53.532;-1.478;2023-05-02T04:38:01;101552.09;;;16.48;91.78
24666;BME280;29726;53.532;-1.478;2023-05-02T04:40:45;101545.38;;;16.45;91.75
24666;BME280;29726;53.532;-1.478;2023-05-02T04:43:29;101539.03;;;16.36;91.73
24666;BME280;29726;53.532;-1.478;2023-05-02T04:46:16;101557.16;;;16.44;91.80
24666;BME280;29726;53.532;-1.478;2023-05-02T04:49:01;101549.16;;;16.42;91.87
24666;BME280;29726;53.532;-1.478;2023-05-02T04:51:45;101547.59;;;16.41;91.90
24666;BME280;29726;53.532;-1.478;2023-05-02T04:54:31;101549.38;;;16.39;91.93
24666;BME280;29726;53.532;-1.478;2023-05-02T04:57:15;101543.16;;;16.26;91.93
24666;BME280;29726;53.532;-1.478;2023-05-02T04:59:59;101555.81;;;16.30;91.83
24666;BME280;29726;53.532;-1.478;2023-05-02T05:02:43;101560.97;;;16.32;91.92
24666;BME280;29726;53.532;-1.478;2023-05-02T05:05:27;101558.63;;;16.30;92.08
24666;BME280;29726;53.532;-1.478;2023-05-02T05:08:11;101567.38;;;16.32;92.10
24666;BME280;29726;53.532;-1.478;2023-05-02T05:10:55;101547.41;;;16.21;92.08
24666;BME280;29726;53.532;-1.478;2023-05-02T05:13:40;101560.53;;;16.24;92.28
24666;BME280;29726;53.532;-1.478;2023-05-02T05:16:25;101515.38;;;15.95;92.16
24666;BME280;29726;53.532;-1.478;2023-05-02T05:19:09;101568.09;;;16.18;92.32
24666;BME280;29726;53.532;-1.478;2023-05-02T05:21:54;101561.50;;;16.21;92.12
24666;BME280;29726;53.532;-1.478;2023-05-02T05:24:38;101566.41;;;16.12;92.17
24666;BME280;29726;53.532;-1.478;2023-05-02T05:27:22;101579.22;;;16.22;92.29
24666;BME280;29726;53.532;-1.478;2023-05-02T05:30:06;101574.88;;;16.12;92.34
24666;BME280;29726;53.532;-1.478;2023-05-02T05:32:51;101583.16;;;16.15;92.30
24666;BME280;29726;53.532;-1.478;2023-05-02T05:35:35;101566.63;;;16.08;92.41
24666;BME280;29726;53.532;-1.478;2023-05-02T05:38:19;101583.66;;;16.14;92.41
24666;BME280;29726;53.532;-1.478;2023-05-02T05:41:03;101594.59;;;16.12;92.42
24666;BME280;29726;53.532;-1.478;2023-05-02T05:43:48;101590.56;;;16.13;92.34
24666;BME280;29726;53.532;-1.478;2023-05-02T05:46:32;101597.91;;;16.10;92.45
24666;BME280;29726;53.532;-1.478;2023-05-02T05:49:16;101597.13;;;16.10;92.33
24666;BME280;29726;53.532;-1.478;2023-05-02T05:52:00;101589.63;;;16.07;92.52
24666;BME280;29726;53.532;-1.478;2023-05-02T05:54:44;101585.91;;;16.01;92.55
24666;BME280;29726;53.532;-1.478;2023-05-02T05:57:28;101597.00;;;16.04;92.53
24666;BME280;29726;53.532;-1.478;2023-05-02T06:00:12;101609.03;;;16.05;92.53
24666;BME280;29726;53.532;-1.478;2023-05-02T06:02:56;101606.88;;;16.00;92.74
24666;BME280;29726;53.532;-1.478;2023-05-02T06:05:41;101614.09;;;16.01;92.67
24666;BME280;29726;53.532;-1.478;2023-05-02T06:08:25;101617.19;;;16.03;92.59
24666;BME280;29726;53.532;-1.478;2023-05-02T06:11:09;101620.97;;;16.00;92.84
24666;BME280;29726;53.532;-1.478;2023-05-02T06:13:54;101624.16;;;15.93;92.70
24666;BME280;29726;53.532;-1.478;2023-05-02T06:16:38;101630.38;;;15.97;92.78
24666;BME280;29726;53.532;-1.478;2023-05-02T06:19:22;101631.66;;;15.96;92.78
24666;BME280;29726;53.532;-1.478;2023-05-02T06:22:06;101641.06;;;15.93;92.80
24666;BME280;29726;53.532;-1.478;2023-05-02T06:24:50;101629.66;;;15.87;92.69
24666;BME280;29726;53.532;-1.478;2023-05-02T06:27:34;101627.13;;;15.89;92.86
24666;BME280;29726;53.532;-1.478;2023-05-02T06:30:18;101631.22;;;15.88;92.77
24666;BME280;29726;53.532;-1.478;2023-05-02T06:33:03;101630.91;;;15.86;92.90
24666;BME280;29726;53.532;-1.478;2023-05-02T06:35:51;101638.25;;;15.84;92.83
24666;BME280;29726;53.532;-1.478;2023-05-02T06:38:35;101656.38;;;15.92;92.59
24666;BME280;29726;53.532;-1.478;2023-05-02T06:41:19;101656.38;;;15.92;92.58
24666;BME280;29726;53.532;-1.478;2023-05-02T06:44:03;101642.47;;;15.88;92.44
24666;BME280;29726;53.532;-1.478;2023-05-02T06:46:47;101645.59;;;15.90;92.55
24666;BME280;29726;53.532;-1.478;2023-05-02T06:49:32;101650.63;;;15.86;92.62
24666;BME280;29726;53.532;-1.478;2023-05-02T06:52:16;101656.72;;;15.85;92.49
24666;BME280;29726;53.532;-1.478;2023-05-02T06:55:00;101657.50;;;15.85;92.40
24666;BME280;29726;53.532;-1.478;2023-05-02T06:57:44;101661.09;;;15.86;92.41
24666;BME280;29726;53.532;-1.478;2023-05-02T07:00:29;101625.84;;;15.58;92.38
24666;BME280;29726;53.532;-1.478;2023-05-02T07:03:13;101660.69;;;15.78;92.63
24666;BME280;29726;53.532;-1.478;2023-05-02T07:05:57;101661.28;;;15.82;92.38
24666;BME280;29726;53.532;-1.478;2023-05-02T07:08:41;101672.84;;;15.84;92.60
24666;BME280;29726;53.532;-1.478;2023-05-02T07:11:26;101675.97;;;15.86;92.71
24666;BME280;29726;53.532;-1.478;2023-05-02T07:14:10;101654.91;;;15.73;92.42
24666;BME280;29726;53.532;-1.478;2023-05-02T07:16:54;101681.28;;;15.84;92.60
24666;BME280;29726;53.532;-1.478;2023-05-02T07:19:38;101677.69;;;15.84;92.44
24666;BME280;29726;53.532;-1.478;2023-05-02T07:22:22;101670.69;;;15.79;92.46
24666;BME280;29726;53.532;-1.478;2023-05-02T07:25:06;101674.72;;;15.87;92.50
24666;BME280;29726;53.532;-1.478;2023-05-02T07:27:50;101673.16;;;15.86;92.51
24666;BME280;29726;53.532;-1.478;2023-05-02T07:30:34;101671.91;;;15.87;92.61
24666;BME280;29726;53.532;-1.478;2023-05-02T07:33:18;101673.44;;;15.88;92.70
24666;BME280;29726;53.532;-1.478;2023-05-02T07:36:02;101667.97;;;15.85;92.84
24666;BME280;29726;53.532;-1.478;2023-05-02T07:38:47;101671.91;;;15.87;92.74
24666;BME280;29726;53.532;-1.478;2023-05-02T07:41:30;101684.25;;;15.90;92.55
24666;BME280;29726;53.532;-1.478;2023-05-02T07:44:14;101674.56;;;15.91;92.64
24666;BME280;29726;53.532;-1.478;2023-05-02T07:46:58;101641.34;;;15.62;92.64
24666;BME280;29726;53.532;-1.478;2023-05-02T07:49:42;101665.00;;;15.88;92.63
24666;BME280;29726;53.532;-1.478;2023-05-02T07:52:26;101666.88;;;15.91;92.48
24666;BME280;29726;53.532;-1.478;2023-05-02T07:55:10;101669.97;;;15.93;92.58
24666;BME280;29726;53.532;-1.478;2023-05-02T07:57:55;101680.28;;;15.96;92.54
24666;BME280;29726;53.532;-1.478;2023-05-02T08:00:39;101679.84;;;15.98;92.46
24666;BME280;29726;53.532;-1.478;2023-05-02T08:03:23;101684.03;;;16.02;92.46
24666;BME280;29726;53.532;-1.478;2023-05-02T08:06:07;101680.72;;;16.04;92.42
24666;BME280;29726;53.532;-1.478;2023-05-02T08:08:51;101672.13;;;15.98;92.39
24666;BME280;29726;53.532;-1.478;2023-05-02T08:11:35;101681.81;;;16.06;92.49
24666;BME280;29726;53.532;-1.478;2023-05-02T08:14:20;101683.25;;;16.02;92.51
24666;BME280;29726;53.532;-1.478;2023-05-02T08:17:04;101686.97;;;16.08;92.68
24666;BME280;29726;53.532;-1.478;2023-05-02T08:19:48;101676.66;;;16.05;92.58
24666;BME280;29726;53.532;-1.478;2023-05-02T08:22:32;101688.53;;;16.09;92.64
24666;BME280;29726;53.532;-1.478;2023-05-02T08:25:16;101689.94;;;16.13;92.60
24666;BME280;29726;53.532;-1.478;2023-05-02T08:28:00;101696.34;;;16.14;92.65
24666;BME280;29726;53.532;-1.478;2023-05-02T08:30:44;101699.28;;;16.19;92.85
24666;BME280;29726;53.532;-1.478;2023-05-02T08:33:28;101700.06;;;16.20;92.65
24666;BME280;29726;53.532;-1.478;2023-05-02T08:36:16;101695.69;;;16.19;92.85
24666;BME280;29726;53.532;-1.478;2023-05-02T08:39:01;101697.84;;;16.24;92.68
24666;BME280;29726;53.532;-1.478;2023-05-02T08:41:45;101692.22;;;16.24;92.67
24666;BME280;29726;53.532;-1.478;2023-05-02T08:44:28;101682.38;;;16.19;92.57
24666;BME280;29726;53.532;-1.478;2023-05-02T08:47:17;101700.63;;;16.33;92.76
24666;BME280;29726;53.532;-1.478;2023-05-02T08:50:02;101677.66;;;16.25;92.60
24666;BME280;29726;53.532;-1.478;2023-05-02T08:52:45;101687.78;;;16.32;92.66
24666;BME280;29726;53.532;-1.478;2023-05-02T08:55:33;101695.31;;;16.35;92.59
24666;BME280;29726;53.532;-1.478;2023-05-02T08:58:17;101687.66;;;16.35;92.70
24666;BME280;29726;53.532;-1.478;2023-05-02T09:01:09;101705.28;;;16.45;92.65
24666;BME280;29726;53.532;-1.478;2023-05-02T09:03:53;101686.84;;;16.35;92.63
24666;BME280;29726;53.532;-1.478;2023-05-02T09:06:38;101702.16;;;16.43;92.67
24666;BME280;29726;53.532;-1.478;2023-05-02T09:09:23;101710.75;;;16.48;92.26
24666;BME280;29726;53.532;-1.478;2023-05-02T09:12:07;101702.78;;;16.47;92.43
24666;BME280;29726;53.532;-1.478;2023-05-02T09:15:24;101704.25;;;16.57;92.60
24666;BME280;29726;53.532;-1.478;2023-05-02T09:18:08;101699.59;;;16.54;92.71
24666;BME280;29726;53.532;-1.478;2023-05-02T09:20:52;101694.44;;;16.52;92.85
24666;BME280;29726;53.532;-1.478;2023-05-02T09:23:39;101703.31;;;16.60;92.87
24666;BME280;29726;53.532;-1.478;2023-05-02T09:26:27;101701.88;;;16.64;92.90
24666;BME280;29726;53.532;-1.478;2023-05-02T09:29:18;101701.41;;;16.66;92.96
24666;BME280;29726;53.532;-1.478;2023-05-02T09:32:06;101685.44;;;16.63;93.08
24666;BME280;29726;53.532;-1.478;2023-05-02T09:35:06;101712.59;;;16.74;92.92
24666;BME280;29726;53.532;-1.478;2023-05-02T09:37:55;101723.72;;;16.78;93.16
24666;BME280;29726;53.532;-1.478;2023-05-02T09:40:52;101730.41;;;16.80;92.75
24666;BME280;29726;53.532;-1.478;2023-05-02T09:43:36;101664.88;;;16.48;92.96
24666;BME280;29726;53.532;-1.478;2023-05-02T09:46:20;101723.63;;;16.87;93.14
24666;BME280;29726;53.532;-1.478;2023-05-02T09:49:04;101718.50;;;16.85;93.30
24666;BME280;29726;53.532;-1.478;2023-05-02T09:51:48;101719.69;;;16.93;93.33
24666;BME280;29726;53.532;-1.478;2023-05-02T09:54:35;101700.59;;;16.88;93.14
24666;BME280;29726;53.532;-1.478;2023-05-02T09:57:20;101722.25;;;17.06;93.62
24666;BME280;29726;53.532;-1.478;2023-05-02T10:00:04;101709.22;;;17.08;93.79
24666;BME280;29726;53.532;-1.478;2023-05-02T10:02:49;101706.69;;;17.10;94.16
24666;BME280;29726;53.532;-1.478;2023-05-02T10:05:38;101711.56;;;17.24;93.98
24666;BME280;29726;53.532;-1.478;2023-05-02T10:08:27;101712.47;;;17.30;94.33
24666;BME280;29726;53.532;-1.478;2023-05-02T10:11:12;101724.69;;;17.36;94.70
24666;BME280;29726;53.532;-1.478;2023-05-02T10:13:56;101733.72;;;17.40;94.84
24666;BME280;29726;53.532;-1.478;2023-05-02T10:19:42;101729.53;;;17.50;94.73
24666;BME280;29726;53.532;-1.478;2023-05-02T10:22:28;101733.25;;;17.56;94.28
24666;BME280;29726;53.532;-1.478;2023-05-02T10:25:14;101729.94;;;17.58;94.03
24666;BME280;29726;53.532;-1.478;2023-05-02T10:27:58;101745.34;;;17.71;93.94
24666;BME280;29726;53.532;-1.478;2023-05-02T10:30:43;101740.28;;;17.75;94.15
24666;BME280;29726;53.532;-1.478;2023-05-02T10:33:28;101743.88;;;17.76;94.05
24666;BME280;29726;53.532;-1.478;2023-05-02T10:36:14;101725.09;;;17.73;94.01
24666;BME280;29726;53.532;-1.478;2023-05-02T10:39:03;101753.34;;;17.87;93.28
24666;BME280;29726;53.532;-1.478;2023-05-02T10:41:47;101756.16;;;17.87;93.29
24666;BME280;29726;53.532;-1.478;2023-05-02T10:44:36;101753.63;;;17.89;93.88
24666;BME280;29726;53.532;-1.478;2023-05-02T10:47:25;101769.69;;;17.98;93.70
24666;BME280;29726;53.532;-1.478;2023-05-02T10:50:09;101646.34;;;17.22;93.55
24666;BME280;29726;53.532;-1.478;2023-05-02T10:52:53;101756.94;;;18.02;93.93
24666;BME280;29726;53.532;-1.478;2023-05-02T10:55:38;101753.91;;;18.06;94.30
24666;BME280;29726;53.532;-1.478;2023-05-02T10:58:23;101750.31;;;18.05;93.65
24666;BME280;29726;53.532;-1.478;2023-05-02T11:04:13;101745.81;;;18.13;93.51
24666;BME280;29726;53.532;-1.478;2023-05-02T11:09:44;101758.56;;;18.23;94.01
24666;BME280;29726;53.532;-1.478;2023-05-02T11:12:51;101754.09;;;18.31;94.03
24666;BME280;29726;53.532;-1.478;2023-05-02T11:18:22;101714.09;;;18.38;95.27
24666;BME280;29726;53.532;-1.478;2023-05-02T11:21:28;101695.78;;;18.34;95.31
24666;BME280;29726;53.532;-1.478;2023-05-02T11:24:39;101727.97;;;18.56;95.82
24666;BME280;29726;53.532;-1.478;2023-05-02T11:27:36;101736.03;;;18.63;95.72
24666;BME280;29726;53.532;-1.478;2023-05-02T11:30:37;101724.25;;;18.64;96.11
24666;BME280;29726;53.532;-1.478;2023-05-02T11:33:21;101736.25;;;18.79;96.34
24666;BME280;29726;53.532;-1.478;2023-05-02T11:36:06;101739.69;;;18.83;96.34
24666;BME280;29726;53.532;-1.478;2023-05-02T11:38:50;101739.25;;;18.90;96.18
24666;BME280;29726;53.532;-1.478;2023-05-02T11:41:41;101753.69;;;18.92;94.52
24666;BME280;29726;53.532;-1.478;2023-05-02T11:44:25;101759.78;;;19.05;95.13
24666;BME280;29726;53.532;-1.478;2023-05-02T11:47:11;101764.22;;;19.12;94.50
24666;BME280;29726;53.532;-1.478;2023-05-02T11:49:56;101757.50;;;19.09;94.53
24666;BME280;29726;53.532;-1.478;2023-05-02T11:52:42;101761.78;;;19.19;94.82
24666;BME280;29726;53.532;-1.478;2023-05-02T11:55:26;101765.22;;;19.29;94.97
24666;BME280;29726;53.532;-1.478;2023-05-02T11:58:15;101761.13;;;19.30;93.40
24666;BME280;29726;53.532;-1.478;2023-05-02T12:01:14;101778.53;;;19.43;93.12
24666;BME280;29726;53.532;-1.478;2023-05-02T12:04:06;101752.78;;;19.41;94.11
24666;BME280;29726;53.532;-1.478;2023-05-02T12:06:55;101740.72;;;19.46;95.43
24666;BME280;29726;53.532;-1.478;2023-05-02T12:09:52;101753.72;;;19.58;94.84
24666;BME280;29726;53.532;-1.478;2023-05-02T12:12:38;101758.16;;;19.64;94.78
24666;BME280;29726;53.532;-1.478;2023-05-02T12:15:22;101760.00;;;19.67;94.94
24666;BME280;29726;53.532;-1.478;2023-05-02T12:18:06;101758.22;;;19.70;95.09
24666;BME280;29726;53.532;-1.478;2023-05-02T12:20:51;101757.75;;;19.77;94.80
24666;BME280;29726;53.532;-1.478;2023-05-02T12:23:35;101755.72;;;19.77;93.21
24666;BME280;29726;53.532;-1.478;2023-05-02T12:26:21;101763.28;;;19.86;93.91
24666;BME280;29726;53.532;-1.478;2023-05-02T12:29:08;101754.25;;;19.87;94.92
24666;BME280;29726;53.532;-1.478;2023-05-02T12:31:52;101748.44;;;19.96;95.29
24666;BME280;29726;53.532;-1.478;2023-05-02T12:34:36;101755.41;;;20.01;94.35
24666;BME280;29726;53.532;-1.478;2023-05-02T12:37:22;101744.88;;;20.01;94.20
24666;BME280;29726;53.532;-1.478;2023-05-02T12:40:14;101749.59;;;20.10;95.04
24666;BME280;29726;53.532;-1.478;2023-05-02T12:43:01;101746.03;;;20.15;95.23
24666;BME280;29726;53.532;-1.478;2023-05-02T12:46:08;101731.81;;;20.09;95.46
24666;BME280;29726;53.532;-1.478;2023-05-02T12:49:06;101736.78;;;20.20;95.81
24666;BME280;29726;53.532;-1.478;2023-05-02T12:51:52;101703.91;;;20.02;95.53
24666;BME280;29726;53.532;-1.478;2023-05-02T12:54:38;101740.53;;;20.36;96.08
24666;BME280;29726;53.532;-1.478;2023-05-02T12:57:23;101746.72;;;20.40;94.25
24666;BME280;29726;53.532;-1.478;2023-05-02T13:00:08;101750.38;;;20.46;92.47
24666;BME280;29726;53.532;-1.478;2023-05-02T13:02:52;101753.47;;;20.48;92.41
24666;BME280;29726;53.532;-1.478;2023-05-02T13:05:36;101753.75;;;20.50;93.86
24666;BME280;29726;53.532;-1.478;2023-05-02T13:08:20;101764.13;;;20.59;94.53
24666;BME280;29726;53.532;-1.478;2023-05-02T13:11:04;101751.00;;;20.61;95.03
24666;BME280;29726;53.532;-1.478;2023-05-02T13:13:48;101740.97;;;20.66;95.48
24666;BME280;29726;53.532;-1.478;2023-05-02T13:16:32;101750.78;;;20.70;96.27
24666;BME280;29726;53.532;-1.478;2023-05-02T13:19:20;101753.19;;;20.83;96.72
24666;BME280;29726;53.532;-1.478;2023-05-02T13:22:04;101757.63;;;20.89;94.96
24666;BME280;29726;53.532;-1.478;2023-05-02T13:24:49;101750.94;;;20.92;94.71
24666;BME280;29726;53.532;-1.478;2023-05-02T13:27:33;101759.97;;;20.96;94.35
24666;BME280;29726;53.532;-1.478;2023-05-02T13:30:17;101707.44;;;20.75;94.19
24666;BME280;29726;53.532;-1.478;2023-05-02T13:33:01;101732.63;;;20.99;94.74
24666;BME280;29726;53.532;-1.478;2023-05-02T13:35:45;101742.50;;;21.14;95.95
24666;BME280;29726;53.532;-1.478;2023-05-02T13:38:29;101747.94;;;21.18;95.67
24666;BME280;29726;53.532;-1.478;2023-05-02T13:41:13;101752.38;;;21.24;95.37
24666;BME280;29726;53.532;-1.478;2023-05-02T13:43:57;101757.78;;;21.28;95.72
24666;BME280;29726;53.532;-1.478;2023-05-02T13:46:41;101756.00;;;21.30;95.14
24666;BME280;29726;53.532;-1.478;2023-05-02T13:49:25;101768.16;;;21.36;92.94
24666;BME280;29726;53.532;-1.478;2023-05-02T13:52:09;101779.81;;;21.44;93.85
24666;BME280;29726;53.532;-1.478;2023-05-02T13:54:54;101775.44;;;21.48;93.88
24666;BME280;29726;53.532;-1.478;2023-05-02T13:57:38;101759.94;;;21.49;93.93
24666;BME280;29726;53.532;-1.478;2023-05-02T14:00:22;101757.88;;;21.55;93.61
24666;BME280;29726;53.532;-1.478;2023-05-02T14:03:06;101763.56;;;21.55;94.37
24666;BME280;29726;53.532;-1.478;2023-05-02T14:05:50;101765.09;;;21.51;93.02
24666;BME280;29726;53.532;-1.478;2023-05-02T14:08:34;101781.44;;;21.67;93.42
24666;BME280;29726;53.532;-1.478;2023-05-02T14:11:18;101762.31;;;21.67;93.88
24666;BME280;29726;53.532;-1.478;2023-05-02T14:14:02;101755.88;;;21.67;94.20
24666;BME280;29726;53.532;-1.478;2023-05-02T14:16:46;101773.72;;;21.78;94.41
24666;BME280;29726;53.532;-1.478;2023-05-02T14:19:30;101775.28;;;21.79;93.69
24666;BME280;29726;53.532;-1.478;2023-05-02T14:22:14;101765.94;;;21.79;93.58
24666;BME280;29726;53.532;-1.478;2023-05-02T14:24:58;101770.88;;;21.84;92.70
24666;BME280;29726;53.532;-1.478;2023-05-02T14:27:42;101767.25;;;21.78;92.94
24666;BME280;29726;53.532;-1.478;2023-05-02T14:30:26;101753.28;;;21.85;93.33
24666;BME280;29726;53.532;-1.478;2023-05-02T14:33:10;101745.81;;;21.88;93.47
24666;BME280;29726;53.532;-1.478;2023-05-02T14:35:54;101742.19;;;21.87;93.77
24666;BME280;29726;53.532;-1.478;2023-05-02T14:38:38;101728.75;;;21.88;93.66
24666;BME280;29726;53.532;-1.478;2023-05-02T14:41:22;101737.81;;;21.97;94.23